Terminal Aerodrome Forecast
Issued by NWS

Home | Current Version | Previous Version | Graphics & Text | Print | Product List | Glossary On
Versions: 1 2 3 4 5 6 7 8 9 10 11 12 13 14 15 16
000
FTUS43 KICT 150528
TAFCNU
TAF
KCNU 150528Z 1506/1606 15010KT P6SM SCT025
     FM151300 22015G23KT P6SM BKN025
     FM152000 29018G26KT P6SM SCT025
     FM160100 30015KT P6SM BKN100=

USA.gov is the U.S. government's official web portal to all federal, state and local government web resources and services.